Time;durP1;ratioP1;P1;durP2;ratioP2;P2;SDS_P1;SDS_P2;PMS_P1;PMS_P2;Temp;Humidity;BMP_temperature;BMP_pressure;BME280_temperature;BME280_humidity;BME280_pressure;Samples;Min_cycle;Max_cycle;Signal;HPM_P1;HPM_P2
2021/08/11 00:02:05;;;;;;;6.47;2.63;;;25.60;99.90;;;;;;4999972;28;20230;-74
2021/08/11 00:04:31;;;;;;;6.05;2.85;;;25.60;99.90;;;;;;5026092;28;20199;-74
2021/08/11 00:06:59;;;;;;;9.27;3.47;;;25.60;99.90;;;;;;5025679;28;20246;-74
2021/08/11 00:09:25;;;;;;;5.40;2.58;;;25.50;99.90;;;;;;5021783;28;20227;-74
2021/08/11 00:11:53;;;;;;;7.95;2.80;;;25.50;99.90;;;;;;5021713;28;20185;-74
2021/08/11 00:14:22;;;;;;;8.73;2.72;;;25.50;99.90;;;;;;5015008;28;20243;-74
2021/08/11 00:16:48;;;;;;;5.93;2.60;;;25.40;99.90;;;;;;5024068;28;20504;-74
2021/08/11 00:19:42;;;;;;;9.40;3.58;;;25.50;99.90;;;;;;5023845;28;20200;-74
2021/08/11 00:22:10;;;;;;;9.23;3.28;;;25.40;99.90;;;;;;5016687;28;20283;-74
2021/08/11 00:24:36;;;;;;;12.25;3.10;;;25.40;99.90;;;;;;5001931;28;20244;-74
2021/08/11 00:27:03;;;;;;;12.10;3.30;;;25.40;99.90;;;;;;5022990;28;20184;-74
2021/08/11 00:29:29;;;;;;;10.80;3.33;;;25.40;99.90;;;;;;5022835;28;20263;-74
2021/08/11 00:31:55;;;;;;;9.45;3.13;;;25.40;99.90;;;;;;5018622;28;20211;-74
2021/08/11 00:34:23;;;;;;;7.97;2.92;;;25.40;99.90;;;;;;5022867;28;20192;-74
2021/08/11 00:36:49;;;;;;;6.00;2.50;;;25.40;99.90;;;;;;5024603;28;20188;-74
2021/08/11 00:39:15;;;;;;;6.47;2.90;;;25.40;99.90;;;;;;5019467;28;20192;-74
2021/08/11 00:41:44;;;;;;;7.07;3.10;;;25.40;99.90;;;;;;5022270;28;20250;-74
2021/08/11 00:44:14;;;;;;;10.57;3.22;;;25.40;99.90;;;;;;5036051;28;20768;-74
2021/08/11 00:46:46;;;;;;;10.40;2.88;;;25.40;99.90;;;;;;5003565;28;20264;-74
2021/08/11 00:49:15;;;;;;;12.05;3.00;;;25.40;99.90;;;;;;5021684;28;20227;-74
2021/08/11 00:51:43;;;;;;;7.80;3.00;;;25.40;99.90;;;;;;5032523;28;20306;-74
2021/08/11 00:54:12;;;;;;;8.93;3.35;;;25.40;99.90;;;;;;5015753;28;20196;-74
2021/08/11 00:56:45;;;;;;;6.85;2.78;;;25.40;99.90;;;;;;5020852;28;20209;-74
2021/08/11 00:59:16;;;;;;;10.35;2.78;;;25.40;99.90;;;;;;5003133;28;20728;-74
2021/08/11 01:01:49;;;;;;;9.93;2.83;;;25.40;99.90;;;;;;5019372;28;20253;-74
2021/08/11 01:04:18;;;;;;;8.30;3.10;;;25.30;99.90;;;;;;5025450;28;20212;-74
2021/08/11 01:06:46;;;;;;;7.60;3.10;;;25.30;99.90;;;;;;5005940;28;20241;-74
2021/08/11 01:09:16;;;;;;;7.95;3.53;;;25.30;99.90;;;;;;5005544;28;20296;-74
2021/08/11 01:11:50;;;;;;;7.47;3.38;;;25.30;99.90;;;;;;5006266;28;20283;-74
2021/08/11 01:14:17;;;;;;;8.38;3.10;;;25.20;99.90;;;;;;5023182;28;20288;-74
2021/08/11 01:16:43;;;;;;;10.70;3.35;;;25.20;99.90;;;;;;5009546;28;20196;-74
2021/08/11 01:19:09;;;;;;;7.68;2.85;;;25.20;99.90;;;;;;5025356;28;20252;-74
2021/08/11 01:22:09;;;;;;;11.15;2.97;;;25.20;99.90;;;;;;5025469;28;20704;-74
2021/08/11 01:25:05;;;;;;;7.03;2.90;;;25.10;99.90;;;;;;4996881;28;20213;-74
2021/08/11 01:28:15;;;;;;;9.40;2.92;;;25.10;99.90;;;;;;5020297;28;20295;-74
2021/08/11 01:31:21;;;;;;;8.52;3.15;;;25.10;99.90;;;;;;5020981;28;20189;-74
2021/08/11 01:34:07;;;;;;;7.15;3.13;;;25.00;99.90;;;;;;5024160;28;20176;-74
2021/08/11 01:36:50;;;;;;;13.48;3.17;;;25.10;99.90;;;;;;5017784;28;20199;-74
2021/08/11 01:39:35;;;;;;;6.90;3.03;;;25.10;99.90;;;;;;5022711;28;20188;-74
2021/08/11 01:42:10;;;;;;;7.35;3.08;;;25.00;99.90;;;;;;5019773;28;20184;-74
2021/08/11 01:44:53;;;;;;;9.32;3.47;;;24.90;99.90;;;;;;5024756;28;20294;-75
2021/08/11 01:47:32;;;;;;;5.97;2.90;;;24.80;99.90;;;;;;5019368;28;20181;-75
2021/08/11 01:50:03;;;;;;;10.17;3.70;;;24.80;99.90;;;;;;5025723;28;20199;-75
2021/08/11 01:52:30;;;;;;;11.77;3.03;;;24.80;99.90;;;;;;5012452;28;20576;-75
2021/08/11 01:54:58;;;;;;;8.03;2.90;;;24.80;99.90;;;;;;5024929;28;20180;-74
2021/08/11 01:57:25;;;;;;;8.53;3.37;;;24.80;99.90;;;;;;5029303;28;20200;-75
2021/08/11 01:59:53;;;;;;;9.87;3.30;;;24.90;99.90;;;;;;5002244;28;20363;-75
2021/08/11 02:02:21;;;;;;;10.35;3.47;;;24.80;99.90;;;;;;5010964;28;20278;-75
2021/08/11 02:04:48;;;;;;;8.07;3.00;;;24.80;99.90;;;;;;5024022;28;20216;-74
2021/08/11 02:07:16;;;;;;;10.70;3.30;;;24.80;99.90;;;;;;5034314;28;20675;-75
2021/08/11 02:09:44;;;;;;;8.87;2.80;;;24.80;99.90;;;;;;5028666;28;20690;-75
2021/08/11 02:12:10;;;;;;;7.70;2.67;;;24.80;99.90;;;;;;5038609;28;20656;-75
2021/08/11 02:14:41;;;;;;;11.47;3.30;;;24.80;99.90;;;;;;5021836;28;20288;-75
2021/08/11 02:17:07;;;;;;;6.10;2.90;;;24.80;99.90;;;;;;5027690;28;20302;-75
2021/08/11 02:19:33;;;;;;;7.88;2.95;;;24.80;99.90;;;;;;5009012;28;20192;-74
2021/08/11 02:22:00;;;;;;;13.47;3.13;;;24.80;99.90;;;;;;5008696;28;20208;-74
2021/08/11 02:24:26;;;;;;;11.13;3.30;;;24.70;99.90;;;;;;5009390;28;20590;-75
2021/08/11 02:27:04;;;;;;;11.87;3.10;;;24.70;99.90;;;;;;5006029;28;20187;-75
2021/08/11 02:30:00;;;;;;;17.10;3.30;;;24.70;99.90;;;;;;5023041;28;20188;-74
2021/08/11 02:33:02;;;;;;;7.23;3.07;;;24.70;99.90;;;;;;5032364;28;20761;-74
2021/08/11 02:35:44;;;;;;;16.53;3.57;;;24.70;99.90;;;;;;5011121;28;20583;-76
2021/08/11 02:38:22;;;;;;;16.23;3.50;;;24.70;99.90;;;;;;5027715;28;20199;-76
2021/08/11 02:41:05;;;;;;;14.57;3.53;;;24.70;99.90;;;;;;5007467;28;20187;-75
2021/08/11 02:43:47;;;;;;;8.45;3.40;;;24.70;99.90;;;;;;5011369;28;20180;-75
2021/08/11 02:46:25;;;;;;;7.87;2.83;;;24.70;99.90;;;;;;5009162;28;20188;-75
2021/08/11 02:49:06;;;;;;;10.47;3.63;;;24.70;99.90;;;;;;5020836;28;20275;-73
2021/08/11 02:51:36;;;;;;;11.50;3.73;;;24.70;99.90;;;;;;5024135;28;20192;-74
2021/08/11 02:54:11;;;;;;;10.63;3.70;;;24.70;99.90;;;;;;5008806;28;20184;-73
2021/08/11 02:56:43;;;;;;;10.97;3.27;;;24.70;99.90;;;;;;4990719;28;20207;-76
2021/08/11 02:59:11;;;;;;;12.33;3.13;;;24.70;99.90;;;;;;5025814;28;20267;-73
2021/08/11 03:01:41;;;;;;;15.53;3.50;;;24.70;99.90;;;;;;5008918;28;20214;-76
2021/08/11 03:04:08;;;;;;;13.73;3.60;;;24.70;99.90;;;;;;5025347;28;20345;-75
2021/08/11 03:06:35;;;;;;;13.97;3.40;;;24.70;99.90;;;;;;5024353;28;20210;-75
2021/08/11 03:09:03;;;;;;;15.10;3.67;;;24.70;99.90;;;;;;5024046;28;20220;-75
2021/08/11 03:11:33;;;;;;;10.23;3.60;;;24.70;99.90;;;;;;5008970;28;20223;-75
2021/08/11 03:14:02;;;;;;;11.40;3.23;;;24.70;99.90;;;;;;5024953;28;20241;-75
2021/08/11 03:16:29;;;;;;;9.03;2.93;;;24.70;99.90;;;;;;4989005;28;20193;-73
2021/08/11 03:18:55;;;;;;;15.00;3.50;;;24.70;99.90;;;;;;5003491;28;20184;-75
2021/08/11 03:21:23;;;;;;;9.80;3.43;;;24.70;99.90;;;;;;5019378;28;20212;-75
2021/08/11 03:23:50;;;;;;;7.33;3.70;;;24.70;99.90;;;;;;5018236;28;20299;-76
2021/08/11 03:26:19;;;;;;;18.90;3.80;;;24.70;99.90;;;;;;5006983;28;20208;-75
2021/08/11 03:28:45;;;;;;;10.53;3.37;;;24.70;99.90;;;;;;5017639;28;20900;-75
2021/08/11 03:31:11;;;;;;;14.43;3.57;;;24.70;99.90;;;;;;5007673;28;20203;-76
2021/08/11 03:33:40;;;;;;;15.83;3.27;;;24.70;99.90;;;;;;4999075;28;20191;-76
2021/08/11 03:36:06;;;;;;;18.70;3.93;;;24.70;99.90;;;;;;5031673;28;20192;-75
2021/08/11 03:38:36;;;;;;;15.63;3.47;;;24.70;99.90;;;;;;5018797;28;20697;-75
2021/08/11 03:41:05;;;;;;;12.23;3.30;;;24.70;99.90;;;;;;5019393;28;20229;-75
2021/08/11 03:43:32;;;;;;;14.93;3.43;;;24.70;99.90;;;;;;5024961;28;20227;-75
2021/08/11 03:46:06;;;;;;;9.17;3.20;;;24.80;99.90;;;;;;5025730;28;20192;-75
2021/08/11 03:48:32;;;;;;;12.40;3.35;;;24.80;99.90;;;;;;5027649;28;20203;-74
2021/08/11 03:50:58;;;;;;;13.68;4.15;;;24.80;99.90;;;;;;5004780;28;20622;-75
2021/08/11 03:53:27;;;;;;;12.53;3.40;;;24.80;99.90;;;;;;5021994;28;20644;-75
2021/08/11 03:55:53;;;;;;;9.33;3.27;;;24.80;99.90;;;;;;5028987;28;20222;-74
2021/08/11 03:58:20;;;;;;;8.50;2.90;;;24.80;99.90;;;;;;5005039;28;20204;-75
2021/08/11 04:00:47;;;;;;;8.20;3.50;;;24.80;99.90;;;;;;5027266;28;20295;-75
2021/08/11 04:03:15;;;;;;;11.27;3.60;;;24.80;99.90;;;;;;5034181;28;20200;-75
2021/08/11 04:05:42;;;;;;;9.60;3.10;;;24.80;99.90;;;;;;5012721;28;20278;-75
2021/08/11 04:08:08;;;;;;;10.47;3.33;;;24.80;99.90;;;;;;5019641;28;20185;-75
2021/08/11 04:10:35;;;;;;;10.00;3.53;;;24.80;99.90;;;;;;5007008;28;20327;-75
2021/08/11 04:13:03;;;;;;;8.37;3.10;;;24.90;99.90;;;;;;5023173;28;20661;-75
2021/08/11 04:15:30;;;;;;;8.75;3.35;;;24.80;99.90;;;;;;5033658;28;20179;-75
2021/08/11 04:17:56;;;;;;;14.85;3.55;;;24.90;99.90;;;;;;5028916;28;20291;-75
2021/08/11 04:20:22;;;;;;;11.75;3.47;;;24.90;99.90;;;;;;5030507;28;20207;-75
2021/08/11 04:22:48;;;;;;;7.47;3.00;;;24.90;99.90;;;;;;5026612;28;20200;-75
2021/08/11 04:25:15;;;;;;;10.55;3.45;;;24.90;99.90;;;;;;5036208;28;20226;-75
2021/08/11 04:27:41;;;;;;;7.05;3.58;;;24.90;99.90;;;;;;5028651;28;20192;-75
2021/08/11 04:30:09;;;;;;;6.27;3.10;;;24.90;99.90;;;;;;5019143;28;20216;-75
2021/08/11 04:32:36;;;;;;;11.48;3.45;;;24.90;99.90;;;;;;5005234;28;20196;-75
2021/08/11 04:35:09;;;;;;;10.52;2.92;;;24.90;99.90;;;;;;4995254;28;20203;-75
2021/08/11 04:37:38;;;;;;;6.93;3.10;;;25.00;99.90;;;;;;5020941;28;20319;-74
2021/08/11 04:40:08;;;;;;;8.23;3.30;;;25.00;99.90;;;;;;5032893;28;20203;-74
2021/08/11 04:42:34;;;;;;;5.57;2.90;;;25.10;99.90;;;;;;5022003;28;20206;-75
2021/08/11 04:45:03;;;;;;;8.05;2.90;;;25.10;99.90;;;;;;5025350;28;20566;-75
2021/08/11 04:47:29;;;;;;;9.32;3.08;;;25.10;99.90;;;;;;5026571;28;20843;-74
2021/08/11 04:49:57;;;;;;;11.10;2.83;;;25.10;99.90;;;;;;5025596;28;20188;-74
2021/08/11 04:52:24;;;;;;;9.68;3.10;;;25.20;99.90;;;;;;5030999;28;20203;-74
2021/08/11 04:54:51;;;;;;;12.23;3.30;;;25.20;99.90;;;;;;5024020;28;20187;-72
2021/08/11 04:57:17;;;;;;;6.30;2.78;;;25.30;99.90;;;;;;5018032;28;20214;-74
2021/08/11 04:59:43;;;;;;;5.93;2.97;;;25.30;99.90;;;;;;5021392;28;20283;-74
2021/08/11 05:02:14;;;;;;;9.55;3.15;;;25.30;99.90;;;;;;5026046;28;20237;-74
2021/08/11 05:04:40;;;;;;;5.60;2.83;;;25.40;99.90;;;;;;5028420;28;20212;-74
2021/08/11 05:07:10;;;;;;;11.15;2.90;;;25.50;99.90;;;;;;5026008;28;20211;-74
2021/08/11 05:09:36;;;;;;;17.48;3.70;;;25.50;99.90;;;;;;5003790;28;20184;-74
2021/08/11 05:12:06;;;;;;;9.40;3.60;;;25.60;99.90;;;;;;5022011;28;20181;-74
2021/08/11 05:14:34;;;;;;;12.75;3.10;;;25.60;99.90;;;;;;5022003;28;20207;-74
2021/08/11 05:17:02;;;;;;;6.50;3.00;;;25.60;99.90;;;;;;5018854;28;20656;-74
2021/08/11 05:19:28;;;;;;;8.55;3.25;;;25.60;99.90;;;;;;5010756;28;20504;-74
2021/08/11 05:21:55;;;;;;;7.60;3.08;;;25.70;99.90;;;;;;5022052;28;20486;-73
2021/08/11 05:24:21;;;;;;;8.38;3.28;;;25.70;99.90;;;;;;5037041;28;20654;-74
2021/08/11 05:26:52;;;;;;;10.23;2.97;;;25.80;99.90;;;;;;5027938;28;20242;-73
2021/08/11 05:29:19;;;;;;;8.27;3.10;;;25.80;99.90;;;;;;5027887;28;20181;-74
2021/08/11 05:31:47;;;;;;;6.80;3.40;;;25.80;99.90;;;;;;5022427;28;20255;-72
2021/08/11 05:34:13;;;;;;;11.43;3.67;;;25.80;99.90;;;;;;5027475;28;20192;-75
2021/08/11 05:36:39;;;;;;;13.05;3.33;;;25.90;99.90;;;;;;5011950;28;20189;-73
2021/08/11 05:39:05;;;;;;;17.23;3.67;;;25.90;99.90;;;;;;5030778;28;20188;-73
2021/08/11 05:41:32;;;;;;;14.68;3.40;;;26.00;99.90;;;;;;5020876;28;20200;-73
2021/08/11 05:43:58;;;;;;;8.23;3.30;;;26.30;99.90;;;;;;5020983;28;20680;-72
2021/08/11 05:46:25;;;;;;;7.55;3.47;;;26.40;99.90;;;;;;5021849;28;20599;-72
2021/08/11 05:48:51;;;;;;;9.50;3.78;;;26.40;99.90;;;;;;5018425;28;20857;-75
2021/08/11 05:51:17;;;;;;;12.48;3.20;;;26.40;99.90;;;;;;5025588;28;20941;-74
2021/08/11 05:53:43;;;;;;;8.70;3.08;;;26.60;99.90;;;;;;5015627;28;20216;-72
2021/08/11 05:56:09;;;;;;;14.07;2.97;;;26.70;99.90;;;;;;5013527;28;20219;-72
2021/08/11 05:58:36;;;;;;;16.10;3.45;;;26.70;99.90;;;;;;5031193;28;20508;-72
2021/08/11 06:01:02;;;;;;;16.80;3.35;;;27.00;99.90;;;;;;5028094;28;20272;-72
2021/08/11 06:03:28;;;;;;;12.13;3.35;;;27.20;99.90;;;;;;4991528;28;20531;-72
2021/08/11 06:05:55;;;;;;;11.73;3.25;;;27.20;99.90;;;;;;5024314;28;20243;-73
2021/08/11 06:08:21;;;;;;;7.68;3.35;;;27.10;99.90;;;;;;5010114;28;20188;-73
2021/08/11 06:10:47;;;;;;;8.88;3.30;;;26.90;99.90;;;;;;5013752;28;20848;-72
2021/08/11 06:13:14;;;;;;;14.05;3.85;;;27.00;99.90;;;;;;5021060;28;20295;-72
2021/08/11 06:15:41;;;;;;;11.95;3.35;;;27.30;99.90;;;;;;5032845;28;20184;-72
2021/08/11 06:18:07;;;;;;;8.05;3.65;;;27.40;99.90;;;;;;5022484;28;20250;-71
2021/08/11 06:20:33;;;;;;;12.25;3.38;;;27.50;99.90;;;;;;5018295;28;20201;-71
2021/08/11 06:23:00;;;;;;;14.98;3.40;;;27.60;99.90;;;;;;5019947;28;20215;-75
2021/08/11 06:25:26;;;;;;;8.07;3.15;;;27.60;99.90;;;;;;5020724;28;20216;-75
2021/08/11 06:27:52;;;;;;;6.53;2.83;;;27.80;99.90;;;;;;5030029;28;20196;-72
2021/08/11 06:30:20;;;;;;;7.55;2.90;;;27.90;99.90;;;;;;5035098;28;20184;-72
2021/08/11 06:32:46;;;;;;;8.32;3.45;;;28.00;99.90;;;;;;5025733;28;20207;-72
2021/08/11 06:35:12;;;;;;;10.15;3.30;;;28.10;99.20;;;;;;5024093;28;20188;-71
2021/08/11 06:37:48;;;;;;;6.10;3.20;;;28.00;99.90;;;;;;5024569;28;20195;-71
2021/08/11 06:40:19;;;;;;;9.63;3.08;;;28.00;99.90;;;;;;5010159;28;20227;-71
2021/08/11 06:42:48;;;;;;;13.68;3.63;;;28.10;99.90;;;;;;5038645;28;20211;-73
2021/08/11 06:45:16;;;;;;;9.45;3.42;;;28.20;99.90;;;;;;5032702;28;20222;-72
2021/08/11 06:47:43;;;;;;;15.57;4.03;;;28.30;99.90;;;;;;5014004;28;20194;-72
2021/08/11 06:50:12;;;;;;;11.30;3.42;;;28.50;99.40;;;;;;5024477;28;20561;-72
2021/08/11 06:52:39;;;;;;;8.30;3.00;;;28.60;98.30;;;;;;5009318;28;20212;-72
2021/08/11 06:55:10;;;;;;;11.80;3.42;;;28.40;99.90;;;;;;5008226;28;20360;-71
2021/08/11 06:57:37;;;;;;;9.35;3.17;;;28.50;99.90;;;;;;5027135;28;20207;-72
2021/08/11 07:00:06;;;;;;;7.40;3.13;;;28.80;98.30;;;;;;5028899;28;20189;-72
2021/08/11 07:02:32;;;;;;;10.55;2.67;;;28.90;98.30;;;;;;5028804;28;20203;-72
2021/08/11 07:04:58;;;;;;;11.75;3.40;;;28.90;98.30;;;;;;5006123;28;20303;-72
2021/08/11 07:07:26;;;;;;;9.63;3.05;;;29.00;98.40;;;;;;5022827;28;20185;-72
2021/08/11 07:09:56;;;;;;;8.05;3.08;;;29.10;98.30;;;;;;5029052;28;20981;-73
2021/08/11 07:12:22;;;;;;;8.82;3.05;;;29.20;97.80;;;;;;5022421;28;20238;-76
2021/08/11 07:14:49;;;;;;;9.68;3.10;;;29.20;98.00;;;;;;5012079;28;20216;-76
2021/08/11 07:17:16;;;;;;;11.18;3.50;;;29.20;98.10;;;;;;5039412;28;20228;-76
2021/08/11 07:19:43;;;;;;;10.40;3.20;;;29.30;96.20;;;;;;5035096;28;20207;-75
2021/08/11 07:22:11;;;;;;;10.98;3.30;;;29.60;95.60;;;;;;5031743;28;20223;-76
2021/08/11 07:24:38;;;;;;;8.38;3.17;;;29.60;95.10;;;;;;5024408;28;20751;-75
2021/08/11 07:27:06;;;;;;;11.57;3.25;;;29.70;94.20;;;;;;5006886;28;20683;-75
2021/08/11 07:29:33;;;;;;;10.02;3.47;;;29.70;93.70;;;;;;5010083;28;20271;-74
2021/08/11 07:32:00;;;;;;;6.75;3.10;;;29.90;93.20;;;;;;5017495;28;20208;-72
2021/08/11 07:34:26;;;;;;;11.32;3.00;;;30.00;92.70;;;;;;5021571;28;20299;-72
2021/08/11 07:36:52;;;;;;;8.90;2.88;;;30.00;91.40;;;;;;5002520;28;20195;-72
2021/08/11 07:39:19;;;;;;;7.85;3.00;;;30.10;90.80;;;;;;4998366;28;20185;-72
2021/08/11 07:41:50;;;;;;;9.27;2.97;;;30.30;89.60;;;;;;5024196;28;20565;-72
2021/08/11 07:44:17;;;;;;;14.15;3.60;;;30.30;89.10;;;;;;5020443;28;20216;-74
2021/08/11 07:46:43;;;;;;;8.90;2.80;;;30.40;87.60;;;;;;5025334;28;20188;-73
2021/08/11 07:49:11;;;;;;;5.85;2.58;;;30.30;85.20;;;;;;5026526;28;20192;-73
2021/08/11 07:51:38;;;;;;;7.57;2.90;;;30.40;87.40;;;;;;5004909;28;20656;-73
2021/08/11 07:54:06;;;;;;;11.27;3.28;;;30.60;86.10;;;;;;5019069;28;20616;-72
2021/08/11 07:56:33;;;;;;;8.15;3.10;;;31.00;82.30;;;;;;5006687;28;20188;-73
2021/08/11 07:58:59;;;;;;;9.52;2.85;;;30.90;82.80;;;;;;5033047;28;20282;-73
2021/08/11 08:01:26;;;;;;;7.22;2.80;;;30.90;86.00;;;;;;5010072;28;20592;-73
2021/08/11 08:04:02;;;;;;;6.43;2.70;;;30.90;84.40;;;;;;5023819;28;20230;-74
2021/08/11 08:06:30;;;;;;;6.70;2.70;;;31.00;80.60;;;;;;5004104;28;20239;-76
2021/08/11 08:08:57;;;;;;;15.57;3.58;;;31.20;79.30;;;;;;5012453;28;20968;-74
2021/08/11 08:11:24;;;;;;;9.85;3.03;;;31.20;80.60;;;;;;5007511;28;20193;-75
2021/08/11 08:13:51;;;;;;;9.68;2.97;;;31.00;80.70;;;;;;5018882;28;20263;-76
2021/08/11 08:16:18;;;;;;;10.77;2.60;;;30.90;82.90;;;;;;5008435;28;20232;-74
2021/08/11 08:18:44;;;;;;;8.90;2.70;;;30.80;80.40;;;;;;5040491;28;20192;-74
2021/08/11 08:21:11;;;;;;;7.95;2.65;;;31.10;77.10;;;;;;5020691;28;20293;-74
2021/08/11 08:23:38;;;;;;;9.43;2.95;;;31.50;75.50;;;;;;5023001;28;20189;-75
2021/08/11 08:26:05;;;;;;;13.02;3.00;;;31.70;73.00;;;;;;5027136;28;20208;-74
2021/08/11 08:28:32;;;;;;;7.57;3.10;;;31.80;73.00;;;;;;5034009;28;20184;-75
2021/08/11 08:30:59;;;;;;;8.57;3.08;;;31.90;71.20;;;;;;5035391;28;20641;-74
2021/08/11 08:33:32;;;;;;;9.32;3.00;;;31.90;71.60;;;;;;5008314;28;20724;-75
2021/08/11 08:35:58;;;;;;;10.88;2.80;;;32.20;69.30;;;;;;5014126;28;20271;-74
2021/08/11 08:38:28;;;;;;;5.55;3.22;;;32.20;69.70;;;;;;4992245;28;20304;-75
2021/08/11 08:40:55;;;;;;;10.98;3.22;;;32.00;70.20;;;;;;5027242;28;20195;-75
2021/08/11 08:43:21;;;;;;;5.63;2.55;;;32.20;69.60;;;;;;5025363;28;20192;-75
2021/08/11 08:46:05;;;;;;;8.90;2.90;;;32.40;69.30;;;;;;5028958;28;20211;-74
2021/08/11 08:48:38;;;;;;;5.35;2.60;;;32.30;70.20;;;;;;5002579;28;20223;-76
2021/08/11 08:51:13;;;;;;;10.23;3.33;;;32.50;70.60;;;;;;5022646;28;20414;-74
2021/08/11 08:53:44;;;;;;;4.93;2.80;;;32.70;69.60;;;;;;5013453;28;20536;-73
2021/08/11 08:56:12;;;;;;;7.28;3.00;;;32.70;70.50;;;;;;5021157;28;20205;-73
2021/08/11 08:58:41;;;;;;;10.63;2.65;;;32.70;68.50;;;;;;5025838;28;20188;-73
2021/08/11 09:01:08;;;;;;;9.05;3.10;;;32.60;68.90;;;;;;5028458;28;20192;-75
2021/08/11 09:03:35;;;;;;;11.27;3.47;;;32.80;68.60;;;;;;5014791;28;20195;-75
2021/08/11 09:06:04;;;;;;;6.65;2.92;;;32.90;67.80;;;;;;5025225;28;20244;-74
2021/08/11 09:08:30;;;;;;;10.45;2.85;;;32.80;68.90;;;;;;5021486;28;20184;-74
2021/08/11 09:10:56;;;;;;;6.32;3.08;;;33.00;66.80;;;;;;5016279;28;20189;-76
2021/08/11 09:13:24;;;;;;;9.60;2.85;;;33.10;65.80;;;;;;5020209;28;20188;-76
2021/08/11 09:16:03;;;;;;;7.07;2.88;;;33.00;66.70;;;;;;5008784;28;20209;-73
2021/08/11 09:18:30;;;;;;;7.05;2.92;;;33.10;67.70;;;;;;5005790;28;20191;-75
2021/08/11 09:21:02;;;;;;;7.28;3.00;;;33.20;65.60;;;;;;5011153;28;20188;-73
2021/08/11 09:23:37;;;;;;;5.40;2.83;;;33.00;69.40;;;;;;5023302;28;20275;-73
2021/08/11 09:26:10;;;;;;;5.78;2.80;;;33.10;68.90;;;;;;5019352;28;20219;-73
2021/08/11 09:28:43;;;;;;;17.33;3.42;;;33.20;66.40;;;;;;5004197;28;20810;-73
2021/08/11 09:31:31;;;;;;;12.43;2.97;;;33.30;67.60;;;;;;5016327;28;20181;-73
2021/08/11 09:34:06;;;;;;;6.45;2.80;;;33.60;66.60;;;;;;5021795;28;20274;-75
2021/08/11 09:36:52;;;;;;;15.25;3.50;;;33.70;65.00;;;;;;5016303;28;20282;-73
2021/08/11 09:39:21;;;;;;;9.40;2.95;;;34.40;65.40;;;;;;5000632;28;20637;-73
2021/08/11 09:42:04;;;;;;;7.20;2.60;;;35.10;62.80;;;;;;5020639;28;20188;-73
2021/08/11 09:44:33;;;;;;;7.63;3.17;;;34.60;65.00;;;;;;5016772;28;20223;-72
2021/08/11 09:47:18;;;;;;;11.57;2.63;;;34.80;66.40;;;;;;5020292;28;20743;-73
2021/08/11 09:50:03;;;;;;;8.13;3.05;;;34.70;64.50;;;;;;5023842;28;20271;-72
2021/08/11 09:52:51;;;;;;;13.85;3.05;;;34.50;64.50;;;;;;5020358;28;20203;-72
2021/08/11 09:55:19;;;;;;;13.00;2.97;;;34.40;63.50;;;;;;5001822;28;20701;-71
2021/08/11 09:57:46;;;;;;;8.82;3.22;;;34.40;63.80;;;;;;5022891;28;20200;-71
2021/08/11 10:00:14;;;;;;;10.25;3.25;;;34.40;64.60;;;;;;5019705;28;20537;-72
2021/08/11 10:02:46;;;;;;;8.45;2.53;;;34.80;62.30;;;;;;5024262;28;20257;-72
2021/08/11 10:05:44;;;;;;;5.30;2.38;;;34.80;61.40;;;;;;5023025;28;20207;-72
2021/08/11 10:08:11;;;;;;;8.15;3.25;;;34.80;60.70;;;;;;5012357;28;20251;-72
2021/08/11 10:10:49;;;;;;;10.63;3.00;;;34.70;61.20;;;;;;5013973;28;20188;-72
2021/08/11 10:13:22;;;;;;;12.13;3.00;;;34.70;60.60;;;;;;5019898;28;20188;-73
2021/08/11 10:15:49;;;;;;;14.95;3.17;;;34.70;60.00;;;;;;5023760;28;20192;-73
2021/08/11 10:18:24;;;;;;;15.27;3.42;;;34.80;60.40;;;;;;5021133;28;20196;-72
2021/08/11 10:21:00;;;;;;;9.90;2.92;;;35.00;60.00;;;;;;5026409;28;20202;-72
2021/08/11 10:23:28;;;;;;;11.20;3.17;;;35.10;60.80;;;;;;5023265;28;20196;-72
2021/08/11 10:25:55;;;;;;;9.13;3.20;;;35.20;60.50;;;;;;5020394;28;20216;-72
2021/08/11 10:28:26;;;;;;;9.15;3.13;;;35.40;59.70;;;;;;5031360;28;20275;-74
2021/08/11 10:30:53;;;;;;;6.90;2.92;;;35.50;57.20;;;;;;5024515;28;20192;-73
2021/08/11 10:33:21;;;;;;;9.48;3.42;;;35.80;56.50;;;;;;5024575;28;20199;-74
2021/08/11 10:35:52;;;;;;;11.45;3.25;;;36.80;56.70;;;;;;5015964;28;20224;-74
2021/08/11 10:38:18;;;;;;;10.00;2.95;;;37.50;54.10;;;;;;5020712;28;20192;-71
2021/08/11 10:40:52;;;;;;;9.35;3.15;;;37.70;55.10;;;;;;5036873;28;20254;-74
2021/08/11 10:43:19;;;;;;;9.95;3.00;;;38.30;53.00;;;;;;5005101;28;20184;-73
2021/08/11 10:46:00;;;;;;;8.60;3.00;;;37.60;53.10;;;;;;5022139;28;20219;-72
2021/08/11 10:48:27;;;;;;;9.50;2.60;;;36.80;54.60;;;;;;5025737;28;20211;-74
2021/08/11 10:50:54;;;;;;;9.35;3.28;;;36.20;54.70;;;;;;5024090;28;20210;-74
2021/08/11 10:53:21;;;;;;;9.65;3.45;;;35.90;56.00;;;;;;5020053;28;20867;-72
2021/08/11 10:55:50;;;;;;;13.90;3.42;;;35.90;54.80;;;;;;5031798;28;20633;-74
2021/08/11 10:58:40;;;;;;;7.20;3.17;;;35.60;55.30;;;;;;5011195;28;20193;-73
2021/08/11 11:01:33;;;;;;;8.05;2.95;;;35.50;54.70;;;;;;5021922;28;20192;-73
2021/08/11 11:04:03;;;;;;;7.68;3.08;;;35.50;56.60;;;;;;5017741;28;20197;-73
2021/08/11 11:07:13;;;;;;;7.38;3.17;;;35.40;56.20;;;;;;5020303;28;20181;-73
2021/08/11 11:09:45;;;;;;;8.00;2.70;;;35.30;55.70;;;;;;5005150;28;20199;-72
2021/08/11 11:12:17;;;;;;;13.45;3.22;;;35.20;54.40;;;;;;5010485;28;20830;-72
2021/08/11 11:14:57;;;;;;;10.35;2.92;;;35.10;53.90;;;;;;5007285;28;20742;-72
2021/08/11 11:17:35;;;;;;;8.85;3.33;;;35.10;54.30;;;;;;5024131;28;20947;-73
2021/08/11 11:20:08;;;;;;;6.70;2.90;;;35.10;54.30;;;;;;5014057;28;20196;-73
2021/08/11 11:22:49;;;;;;;11.85;3.38;;;35.10;55.60;;;;;;5018721;28;20264;-73
2021/08/11 11:25:18;;;;;;;14.98;2.90;;;35.00;54.30;;;;;;5020605;28;20228;-73
2021/08/11 11:27:53;;;;;;;8.77;3.00;;;34.90;54.60;;;;;;5025609;28;20704;-73
2021/08/11 11:30:26;;;;;;;4.63;2.67;;;35.00;54.60;;;;;;5017000;28;20720;-72
2021/08/11 11:32:54;;;;;;;9.27;2.70;;;34.90;53.70;;;;;;5018208;28;20200;-73
2021/08/11 11:35:23;;;;;;;6.25;2.65;;;34.90;55.00;;;;;;5023103;28;20242;-73
2021/08/11 11:38:10;;;;;;;8.23;2.95;;;35.00;54.80;;;;;;5018983;28;20188;-73
2021/08/11 11:40:54;;;;;;;7.88;3.22;;;34.90;54.90;;;;;;5020067;28;20668;-73
2021/08/11 11:43:32;;;;;;;7.38;2.83;;;34.90;55.40;;;;;;5013621;28;20281;-73
2021/08/11 11:46:02;;;;;;;5.53;2.85;;;35.00;53.60;;;;;;5020163;28;20243;-73
2021/08/11 11:48:29;;;;;;;5.75;2.47;;;35.00;53.00;;;;;;5024286;28;20192;-73
2021/08/11 11:51:04;;;;;;;8.95;3.00;;;34.90;54.00;;;;;;5014804;28;20721;-73
2021/08/11 11:53:34;;;;;;;6.07;2.80;;;35.00;52.70;;;;;;5020095;28;20183;-73
2021/08/11 11:56:14;;;;;;;160.93;11.88;;;35.10;53.20;;;;;;5016737;28;20343;-73
2021/08/11 11:58:45;;;;;;;8.07;2.80;;;35.00;53.40;;;;;;5018663;28;20192;-73
2021/08/11 12:01:13;;;;;;;10.13;3.13;;;35.00;53.00;;;;;;5018657;28;20583;-72
2021/08/11 12:03:55;;;;;;;6.30;2.67;;;34.80;52.90;;;;;;5007542;28;20246;-73
2021/08/11 12:06:40;;;;;;;9.05;2.70;;;34.90;51.90;;;;;;5017451;28;20257;-73
2021/08/11 12:09:07;;;;;;;11.27;2.80;;;34.90;52.20;;;;;;5022504;28;20188;-73
2021/08/11 12:11:35;;;;;;;6.93;2.90;;;34.80;52.80;;;;;;5022689;28;20304;-72
2021/08/11 12:14:08;;;;;;;4.70;2.58;;;34.90;52.10;;;;;;5017551;28;20771;-73
2021/08/11 12:16:42;;;;;;;8.40;2.97;;;34.90;53.10;;;;;;5015392;28;20184;-73
2021/08/11 12:19:18;;;;;;;7.78;2.88;;;35.00;53.50;;;;;;5006023;28;20604;-74
2021/08/11 12:21:51;;;;;;;8.73;2.83;;;35.00;52.40;;;;;;5021533;28;20200;-73
2021/08/11 12:24:18;;;;;;;19.52;3.25;;;35.00;52.60;;;;;;5022043;28;20581;-73
2021/08/11 12:26:46;;;;;;;7.35;2.92;;;35.00;51.50;;;;;;5021705;28;21595;-73
2021/08/11 12:29:21;;;;;;;6.72;3.20;;;34.80;52.90;;;;;;5019693;28;20646;-73
2021/08/11 12:31:49;;;;;;;9.60;2.80;;;34.90;51.30;;;;;;5016931;28;20291;-73
2021/08/11 12:34:17;;;;;;;6.07;3.05;;;34.80;51.50;;;;;;5014796;28;20185;-73
2021/08/11 12:36:43;;;;;;;10.00;2.50;;;34.80;52.30;;;;;;5003052;28;20177;-73
2021/08/11 12:39:18;;;;;;;17.60;3.10;;;34.80;52.90;;;;;;5009253;28;20184;-73
2021/08/11 12:42:02;;;;;;;7.72;2.80;;;34.90;53.10;;;;;;5000798;28;20245;-73
2021/08/11 12:44:30;;;;;;;8.70;3.03;;;35.00;52.10;;;;;;5011034;28;20212;-73
2021/08/11 12:47:03;;;;;;;9.73;2.88;;;34.90;52.00;;;;;;5022328;28;20172;-72
2021/08/11 12:49:42;;;;;;;11.18;3.03;;;34.70;54.20;;;;;;5015252;28;20188;-73
2021/08/11 12:55:05;;;;;;;6.75;3.30;;;34.90;51.90;;;;;;5020679;28;20195;-73
2021/08/11 12:57:50;;;;;;;6.63;2.67;;;34.90;50.90;;;;;;5005427;28;20224;-73
2021/08/11 13:00:18;;;;;;;6.80;2.97;;;34.80;51.50;;;;;;5017702;28;20258;-73
2021/08/11 13:02:45;;;;;;;8.15;2.90;;;34.70;52.30;;;;;;5020786;28;20303;-73
2021/08/11 13:05:18;;;;;;;8.75;3.20;;;34.80;50.90;;;;;;5014714;28;20200;-73